KLM50L EKCH-EHAM
Flight info
| Callsign | KLM50L |
|---|---|
| Flight time | N/A |
| Altitude | 38000 |
| Route | LANGO M611 ALASA DCT WANZA N872 KUBAT T200 BLUFA |
| Aircraft | B738/M-SDE2E3FGHIRWXY/LB1 |
Departure
| Time | N/A |
|---|---|
| Airport | Copenhagen Kastrup Airport (EKCH) |
Arrival
| Time | 2026-04-27 09:40 |
|---|---|
| Airport | Amsterdam Airport Schiphol (EHAM) |
| Time | Latitude | Longitude | Altitude | Speed | Heading |
|---|---|---|---|---|---|
| 2026-04-27 09:02 | 54.00096 | 8.83572 | 38341 ft | 410 kts | 237° |
| 2026-04-27 09:03 | 53.98379 | 8.79696 | 38345 ft | 410 kts | 237° |
| 2026-04-27 09:03 | 53.94956 | 8.71988 | 38349 ft | 410 kts | 237° |
| 2026-04-27 09:04 | 53.91504 | 8.64237 | 38343 ft | 410 kts | 237° |
| 2026-04-27 09:04 | 53.88064 | 8.56535 | 38350 ft | 410 kts | 237° |
| 2026-04-27 09:05 | 53.84623 | 8.48858 | 38348 ft | 411 kts | 237° |
| 2026-04-27 09:05 | 53.81154 | 8.41138 | 38345 ft | 411 kts | 237° |
| 2026-04-27 09:06 | 53.77706 | 8.33492 | 38344 ft | 411 kts | 237° |
| 2026-04-27 09:06 | 53.74223 | 8.25791 | 38345 ft | 411 kts | 237° |
| 2026-04-27 09:07 | 53.70732 | 8.18095 | 38342 ft | 412 kts | 236° |
| 2026-04-27 09:07 | 53.67247 | 8.10438 | 38346 ft | 412 kts | 236° |
| 2026-04-27 09:08 | 53.63765 | 8.02809 | 38346 ft | 412 kts | 236° |
| 2026-04-27 09:08 | 53.60252 | 7.95136 | 38346 ft | 412 kts | 236° |
| 2026-04-27 09:09 | 53.56747 | 7.87504 | 38336 ft | 413 kts | 236° |
| 2026-04-27 09:09 | 53.53243 | 7.79898 | 38346 ft | 412 kts | 236° |
| 2026-04-27 09:10 | 53.50311 | 7.73549 | 38345 ft | 412 kts | 236° |
| 2026-04-27 09:10 | 53.46207 | 7.64692 | 38345 ft | 412 kts | 236° |
| 2026-04-27 09:11 | 53.42684 | 7.57113 | 38100 ft | 415 kts | 236° |
| 2026-04-27 09:11 | 53.41502 | 7.54573 | 37914 ft | 415 kts | 236° |
| 2026-04-27 09:11 | 53.39731 | 7.50777 | 37645 ft | 411 kts | 236° |
| 2026-04-27 09:11 | 53.37400 | 7.45794 | 37288 ft | 406 kts | 236° |
| 2026-04-27 09:12 | 53.36239 | 7.43312 | 37110 ft | 406 kts | 236° |
| 2026-04-27 09:12 | 53.34494 | 7.39588 | 36840 ft | 405 kts | 236° |
| 2026-04-27 09:12 | 53.32755 | 7.35880 | 36588 ft | 404 kts | 236° |
| 2026-04-27 09:12 | 53.31015 | 7.32176 | 36331 ft | 403 kts | 236° |
| 2026-04-27 09:13 | 53.29281 | 7.28490 | 36056 ft | 403 kts | 236° |
| 2026-04-27 09:13 | 53.27558 | 7.24831 | 35641 ft | 406 kts | 236° |
| 2026-04-27 09:13 | 53.25803 | 7.21109 | 35201 ft | 408 kts | 235° |
| 2026-04-27 09:13 | 53.24037 | 7.17371 | 34764 ft | 409 kts | 235° |
| 2026-04-27 09:14 | 53.22275 | 7.13650 | 34322 ft | 405 kts | 235° |
| 2026-04-27 09:14 | 53.20551 | 7.10017 | 33824 ft | 400 kts | 235° |
| 2026-04-27 09:14 | 53.18838 | 7.06411 | 33330 ft | 399 kts | 235° |
| 2026-04-27 09:14 | 53.17114 | 7.02783 | 32854 ft | 400 kts | 235° |
| 2026-04-27 09:15 | 53.15379 | 6.99136 | 32340 ft | 401 kts | 235° |
| 2026-04-27 09:15 | 53.13632 | 6.95469 | 31731 ft | 405 kts | 235° |
| 2026-04-27 09:15 | 53.11861 | 6.91757 | 31154 ft | 408 kts | 235° |
| 2026-04-27 09:15 | 53.10106 | 6.88084 | 30562 ft | 411 kts | 234° |
| 2026-04-27 09:16 | 53.08316 | 6.84345 | 29892 ft | 413 kts | 234° |
| 2026-04-27 09:16 | 53.06511 | 6.80583 | 29224 ft | 415 kts | 234° |
| 2026-04-27 09:16 | 53.04705 | 6.76822 | 28558 ft | 417 kts | 234° |
| 2026-04-27 09:16 | 53.02917 | 6.73106 | 27930 ft | 418 kts | 234° |
| 2026-04-27 09:17 | 53.01089 | 6.69311 | 27296 ft | 420 kts | 234° |
| 2026-04-27 09:17 | 52.99255 | 6.65510 | 26665 ft | 422 kts | 234° |
| 2026-04-27 09:17 | 52.97409 | 6.61688 | 26035 ft | 425 kts | 234° |
| 2026-04-27 09:17 | 52.95569 | 6.57886 | 25428 ft | 427 kts | 234° |
| 2026-04-27 09:18 | 52.93695 | 6.54018 | 24819 ft | 428 kts | 234° |
| 2026-04-27 09:18 | 52.91820 | 6.50158 | 24233 ft | 425 kts | 234° |
| 2026-04-27 09:18 | 52.89973 | 6.46358 | 23594 ft | 419 kts | 234° |
| 2026-04-27 09:18 | 52.88177 | 6.42670 | 22919 ft | 413 kts | 234° |
| 2026-04-27 09:19 | 52.86376 | 6.38972 | 22252 ft | 411 kts | 233° |
| 2026-04-27 09:19 | 52.84577 | 6.35287 | 21595 ft | 408 kts | 233° |
| 2026-04-27 09:19 | 52.82831 | 6.31650 | 20969 ft | 406 kts | 235° |
| 2026-04-27 09:19 | 52.81187 | 6.27880 | 20334 ft | 401 kts | 237° |
| 2026-04-27 09:20 | 52.79611 | 6.24080 | 19712 ft | 396 kts | 238° |
| 2026-04-27 09:20 | 52.78087 | 6.20365 | 19120 ft | 392 kts | 238° |
| 2026-04-27 09:20 | 52.76554 | 6.16643 | 18522 ft | 388 kts | 238° |
| 2026-04-27 09:20 | 52.75034 | 6.12984 | 17839 ft | 385 kts | 237° |
| 2026-04-27 09:21 | 52.73511 | 6.09348 | 17173 ft | 382 kts | 237° |
| 2026-04-27 09:21 | 52.72017 | 6.05803 | 16528 ft | 379 kts | 237° |
| 2026-04-27 09:21 | 52.70509 | 6.02237 | 15890 ft | 376 kts | 236° |
| 2026-04-27 09:21 | 52.69010 | 5.98701 | 15269 ft | 373 kts | 236° |
| 2026-04-27 09:22 | 52.67538 | 5.95235 | 14660 ft | 371 kts | 236° |
| 2026-04-27 09:22 | 52.66057 | 5.91757 | 14056 ft | 369 kts | 236° |
| 2026-04-27 09:22 | 52.64580 | 5.88301 | 13397 ft | 368 kts | 236° |
| 2026-04-27 09:22 | 52.63105 | 5.84848 | 12809 ft | 364 kts | 236° |
| 2026-04-27 09:23 | 52.61678 | 5.81502 | 12308 ft | 360 kts | 236° |
| 2026-04-27 09:23 | 52.60247 | 5.78152 | 11820 ft | 355 kts | 236° |
| 2026-04-27 09:23 | 52.58837 | 5.74857 | 11389 ft | 349 kts | 236° |
| 2026-04-27 09:23 | 52.57447 | 5.71615 | 10985 ft | 343 kts | 236° |
| 2026-04-27 09:24 | 52.56090 | 5.68453 | 10616 ft | 338 kts | 236° |
| 2026-04-27 09:24 | 52.54746 | 5.65325 | 10388 ft | 329 kts | 236° |
| 2026-04-27 09:24 | 52.53444 | 5.62302 | 10326 ft | 316 kts | 236° |
| 2026-04-27 09:24 | 52.52199 | 5.59417 | 10314 ft | 302 kts | 236° |
| 2026-04-27 09:25 | 52.51040 | 5.56635 | 10300 ft | 289 kts | 242° |
| 2026-04-27 09:25 | 52.50296 | 5.53665 | 10325 ft | 283 kts | 253° |
| 2026-04-27 09:25 | 52.49677 | 5.50594 | 10252 ft | 284 kts | 252° |
| 2026-04-27 09:25 | 52.49040 | 5.47500 | 10066 ft | 287 kts | 252° |
| 2026-04-27 09:26 | 52.48390 | 5.44389 | 9842 ft | 288 kts | 252° |
| 2026-04-27 09:26 | 52.47729 | 5.41262 | 9626 ft | 288 kts | 252° |
| 2026-04-27 09:26 | 52.47078 | 5.38211 | 9421 ft | 285 kts | 252° |
| 2026-04-27 09:26 | 52.46423 | 5.35159 | 9223 ft | 282 kts | 251° |
| 2026-04-27 09:27 | 52.45769 | 5.32137 | 9007 ft | 278 kts | 251° |
| 2026-04-27 09:27 | 52.45133 | 5.29185 | 8786 ft | 276 kts | 251° |
| 2026-04-27 09:27 | 52.44494 | 5.26236 | 8573 ft | 273 kts | 251° |
| 2026-04-27 09:27 | 52.43858 | 5.23313 | 8367 ft | 272 kts | 251° |
| 2026-04-27 09:28 | 52.43219 | 5.20383 | 8168 ft | 273 kts | 251° |
| 2026-04-27 09:28 | 52.42578 | 5.17445 | 7970 ft | 275 kts | 251° |
| 2026-04-27 09:28 | 52.41936 | 5.14506 | 7773 ft | 277 kts | 251° |
| 2026-04-27 09:28 | 52.41284 | 5.11526 | 7573 ft | 277 kts | 251° |
| 2026-04-27 09:29 | 52.40633 | 5.08557 | 7399 ft | 275 kts | 251° |
| 2026-04-27 09:29 | 52.39994 | 5.05643 | 7338 ft | 274 kts | 251° |
| 2026-04-27 09:29 | 52.39348 | 5.02706 | 7315 ft | 274 kts | 250° |
| 2026-04-27 09:29 | 52.38702 | 4.99769 | 7309 ft | 273 kts | 251° |
| 2026-04-27 09:30 | 52.38056 | 4.96840 | 7320 ft | 273 kts | 251° |
| 2026-04-27 09:30 | 52.37406 | 4.93898 | 7313 ft | 274 kts | 251° |
| 2026-04-27 09:30 | 52.36766 | 4.90996 | 7315 ft | 275 kts | 251° |
| 2026-04-27 09:30 | 52.36116 | 4.88057 | 7317 ft | 275 kts | 250° |
| 2026-04-27 09:31 | 52.35461 | 4.85115 | 7315 ft | 274 kts | 250° |
| 2026-04-27 09:31 | 52.34817 | 4.82202 | 7335 ft | 275 kts | 250° |
| 2026-04-27 09:31 | 52.34169 | 4.79271 | 7306 ft | 271 kts | 250° |
| 2026-04-27 09:31 | 52.33542 | 4.76446 | 7301 ft | 257 kts | 253° |
| 2026-04-27 09:32 | 52.33387 | 4.73630 | 7331 ft | 243 kts | 279° |
| 2026-04-27 09:32 | 52.33774 | 4.70938 | 7268 ft | 243 kts | 284° |
| 2026-04-27 09:32 | 52.34160 | 4.68262 | 7002 ft | 244 kts | 283° |
| 2026-04-27 09:32 | 52.34534 | 4.65540 | 6767 ft | 244 kts | 280° |
| 2026-04-27 09:33 | 52.34406 | 4.62806 | 6472 ft | 244 kts | 246° |
| 2026-04-27 09:33 | 52.33525 | 4.60491 | 6257 ft | 242 kts | 236° |
| 2026-04-27 09:33 | 52.32610 | 4.58174 | 6006 ft | 242 kts | 238° |
| 2026-04-27 09:33 | 52.31714 | 4.55837 | 5741 ft | 241 kts | 238° |
| 2026-04-27 09:34 | 52.30828 | 4.53531 | 5502 ft | 242 kts | 239° |
| 2026-04-27 09:34 | 52.29933 | 4.51192 | 5198 ft | 244 kts | 239° |
| 2026-04-27 09:34 | 52.29007 | 4.48809 | 4752 ft | 248 kts | 239° |
| 2026-04-27 09:34 | 52.28093 | 4.46456 | 4284 ft | 246 kts | 238° |
| 2026-04-27 09:35 | 52.26971 | 4.44428 | 3928 ft | 237 kts | 211° |
| 2026-04-27 09:35 | 52.25466 | 4.43767 | 3654 ft | 221 kts | 179° |
| 2026-04-27 09:35 | 52.23979 | 4.44241 | 3282 ft | 215 kts | 156° |
| 2026-04-27 09:35 | 52.22694 | 4.45362 | 2905 ft | 210 kts | 146° |
| 2026-04-27 09:36 | 52.21683 | 4.47030 | 2529 ft | 207 kts | 116° |
| 2026-04-27 09:36 | 52.21216 | 4.49195 | 2374 ft | 198 kts | 107° |
| 2026-04-27 09:36 | 52.20809 | 4.51282 | 2176 ft | 193 kts | 102° |
| 2026-04-27 09:36 | 52.20990 | 4.53331 | 2007 ft | 180 kts | 54° |
| 2026-04-27 09:37 | 52.21870 | 4.54710 | 1977 ft | 172 kts | 43° |
| 2026-04-27 09:37 | 52.22467 | 4.56292 | 2033 ft | 163 kts | 72° |
| 2026-04-27 09:37 | 52.22896 | 4.58013 | 2015 ft | 166 kts | 59° |
| 2026-04-27 09:37 | 52.23498 | 4.59582 | 1935 ft | 163 kts | 58° |
| 2026-04-27 09:38 | 52.24088 | 4.61087 | 1895 ft | 157 kts | 58° |
| 2026-04-27 09:38 | 52.24657 | 4.62578 | 1618 ft | 153 kts | 59° |
| 2026-04-27 09:38 | 52.25200 | 4.64014 | 1465 ft | 149 kts | 58° |
| 2026-04-27 09:38 | 52.25745 | 4.65456 | 1213 ft | 146 kts | 58° |
| 2026-04-27 09:39 | 52.26273 | 4.66820 | 1021 ft | 142 kts | 59° |
| 2026-04-27 09:39 | 52.26787 | 4.68163 | 827 ft | 135 kts | 58° |
| 2026-04-27 09:39 | 52.27288 | 4.69489 | 649 ft | 137 kts | 58° |
| 2026-04-27 09:39 | 52.27797 | 4.70811 | 463 ft | 140 kts | 57° |
| 2026-04-27 09:40 | 52.28317 | 4.72162 | 264 ft | 140 kts | 58° |
| 2026-04-27 09:40 | 52.28826 | 4.73506 | 67 ft | 137 kts | 57° |
| 2026-04-27 09:40 | 52.29310 | 4.74762 | 0 ft | 116 kts | 58° |
| 2026-04-27 09:40 | 52.29641 | 4.75620 | -3 ft | 39 kts | 57° |
| 2026-04-27 09:41 | 52.29800 | 4.75816 | -4 ft | 25 kts | 26° |
| 2026-04-27 09:41 | 52.29905 | 4.75909 | -4 ft | 14 kts | 28° |
| 2026-04-27 09:41 | 52.29989 | 4.75987 | -3 ft | 14 kts | 44° |
| 2026-04-27 09:41 | 52.30048 | 4.76134 | -4 ft | 18 kts | 58° |
| 2026-04-27 09:42 | 52.30118 | 4.76317 | -3 ft | 19 kts | 58° |
| 2026-04-27 09:42 | 52.30188 | 4.76496 | -3 ft | 18 kts | 58° |
| 2026-04-27 09:42 | 52.30255 | 4.76672 | -3 ft | 19 kts | 57° |
| 2026-04-27 09:42 | 52.30333 | 4.76878 | -4 ft | 25 kts | 58° |
| 2026-04-27 09:43 | 52.30435 | 4.77143 | -4 ft | 30 kts | 58° |
| 2026-04-27 09:43 | 52.30546 | 4.77433 | -3 ft | 23 kts | 59° |
| 2026-04-27 09:43 | 52.30628 | 4.77489 | -3 ft | 15 kts | 317° |
| 2026-04-27 09:43 | 52.30643 | 4.77365 | -3 ft | 10 kts | 282° |
| 2026-04-27 09:44 | 52.30660 | 4.77342 | -3 ft | 2 kts | 349° |
| 2026-04-27 09:44 | 52.30684 | 4.77341 | -3 ft | 4 kts | 2° |
| 2026-04-27 09:44 | 52.30702 | 4.77342 | -3 ft | 1 kts | 2° |
| 2026-04-27 09:44 | 52.30704 | 4.77342 | -3 ft | 0 kts | 2° |